createdAt,value
2023-03-01T00:02:09.358Z,76.75
2023-03-01T00:07:10.964Z,76.43
2023-03-01T00:12:12.638Z,76.74
2023-03-01T00:17:14.466Z,77.91
2023-03-01T00:22:16.043Z,77.33
2023-03-01T00:27:17.750Z,77.75
2023-03-01T00:32:19.572Z,78.14
2023-03-01T00:37:22.392Z,78.59
2023-03-01T00:42:24.218Z,77.71
2023-03-01T00:47:25.784Z,77.21
2023-03-01T00:52:27.734Z,77.55
2023-03-01T00:57:29.426Z,77.75
2023-03-01T01:02:33.537Z,78.75
2023-03-01T01:07:36.069Z,77.95
2023-03-01T01:12:38.328Z,77.10
2023-03-01T01:17:39.923Z,76.34
2023-03-01T01:22:41.521Z,76.94
2023-03-01T01:27:43.177Z,77.12
2023-03-01T01:32:44.741Z,77.54
2023-03-01T01:37:46.300Z,78.60
2023-03-01T01:42:47.921Z,77.17
2023-03-01T01:47:49.625Z,76.95
2023-03-01T01:52:52.038Z,77.24
2023-03-01T01:58:03.591Z,77.37
2023-03-01T02:03:14.354Z,77.10
2023-03-01T02:08:17.842Z,78.01
2023-03-01T02:13:19.557Z,77.52
2023-03-01T02:18:22.432Z,76.83
2023-03-01T02:23:24.141Z,77.15
2023-03-01T02:28:36.896Z,77.18
2023-03-01T02:33:39.532Z,77.50
2023-03-01T02:38:42.354Z,77.92
2023-03-01T02:43:44.328Z,78.66
2023-03-01T02:48:50.097Z,78.71
2023-03-01T02:54:08.038Z,78.96
2023-03-01T02:59:10.303Z,78.40
2023-03-01T03:04:18.643Z,79.02
2023-03-01T03:09:23.046Z,77.73
2023-03-01T03:14:24.799Z,76.88
2023-03-01T03:19:26.644Z,77.11
2023-03-01T03:24:39.211Z,77.28
2023-03-01T03:29:40.912Z,77.01
2023-03-01T03:34:42.601Z,77.85
2023-03-01T03:39:44.144Z,76.41
2023-03-01T03:44:45.733Z,77.03
2023-03-01T03:49:47.352Z,77.55
2023-03-01T03:54:48.922Z,76.99
2023-03-01T03:59:50.475Z,76.92
2023-03-01T04:04:52.026Z,77.54
2023-03-01T04:09:53.574Z,77.58
2023-03-01T04:14:55.218Z,76.78
2023-03-01T04:19:56.824Z,77.28
2023-03-01T04:24:58.428Z,77.56
2023-03-01T04:30:00.101Z,77.17
2023-03-01T04:35:01.863Z,77.69
2023-03-01T04:40:16.644Z,77.82
2023-03-01T04:45:18.337Z,77.54
2023-03-01T04:50:24.561Z,77.59
2023-03-01T04:55:27.620Z,77.45
2023-03-01T05:00:29.269Z,78.01
2023-03-01T05:05:37.145Z,79.47
2023-03-01T05:10:39.736Z,78.47
2023-03-01T05:15:41.501Z,78.16
2023-03-01T05:20:43.185Z,77.50
2023-03-01T05:25:45.010Z,78.04
2023-03-01T05:30:47.678Z,77.87
2023-03-01T05:35:50.952Z,77.64
2023-03-01T05:40:52.589Z,75.64
2023-03-01T05:45:54.232Z,75.80
2023-03-01T05:50:55.898Z,76.52
2023-03-01T05:55:57.532Z,76.56
2023-03-01T06:00:59.185Z,76.51
2023-03-01T06:06:00.821Z,77.53
2023-03-01T06:11:02.401Z,76.46
2023-03-01T06:16:07.762Z,75.59
2023-03-01T06:21:10.060Z,76.14
2023-03-01T06:26:11.739Z,76.45
2023-03-01T06:31:13.359Z,75.68
2023-03-01T06:36:19.656Z,75.50
2023-03-01T06:41:21.690Z,76.06
2023-03-01T06:46:23.417Z,75.56
2023-03-01T06:51:25.095Z,75.72
2023-03-01T06:56:26.642Z,75.60
2023-03-01T07:01:28.393Z,74.87
2023-03-01T07:06:30.275Z,75.64
2023-03-01T07:11:32.003Z,75.02
2023-03-01T07:16:34.013Z,74.28
2023-03-01T07:21:35.797Z,74.94
2023-03-01T07:26:37.882Z,73.94
2023-03-01T07:31:39.446Z,73.81
2023-03-01T07:36:43.967Z,72.46
2023-03-01T07:41:45.631Z,73.25
2023-03-01T07:46:47.262Z,73.01
2023-03-01T07:51:49.229Z,73.22
2023-03-01T07:56:50.824Z,72.44
2023-03-01T08:01:52.452Z,72.85
2023-03-01T08:06:55.257Z,72.26
2023-03-01T08:11:57.934Z,71.89
2023-03-01T08:16:59.704Z,72.45
2023-03-01T08:22:03.036Z,72.24
2023-03-01T08:27:04.808Z,72.31
2023-03-01T08:32:06.545Z,71.39
2023-03-01T08:37:08.224Z,71.79
2023-03-01T08:42:09.873Z,71.78
2023-03-01T08:47:11.458Z,71.63
2023-03-01T08:52:13.132Z,71.88
2023-03-01T08:57:14.803Z,72.30
2023-03-01T09:02:18.900Z,71.98
2023-03-01T09:07:20.511Z,71.46
2023-03-01T09:12:22.413Z,72.17
2023-03-01T09:17:24.064Z,71.98
2023-03-01T09:22:25.711Z,71.51
2023-03-01T09:27:27.291Z,71.54
2023-03-01T09:32:31.812Z,72.04
2023-03-01T09:37:35.236Z,71.96
2023-03-01T09:42:37.228Z,71.05
2023-03-01T09:47:38.862Z,71.47
2023-03-01T09:52:59.754Z,71.56
2023-03-01T09:58:27.172Z,70.96
2023-03-01T10:03:40.701Z,70.72
2023-03-01T10:08:47.984Z,70.51
2023-03-01T10:14:11.153Z,70.64
2023-03-01T10:19:16.908Z,70.11
2023-03-01T10:24:22.392Z,70.03
2023-03-01T10:29:35.741Z,69.84
2023-03-01T10:34:37.915Z,69.38
2023-03-01T10:39:59.061Z,69.32
2023-03-01T10:45:18.619Z,69.09
2023-03-01T10:50:24.347Z,67.87
2023-03-01T10:55:37.399Z,68.08
2023-03-01T11:00:49.501Z,66.96
2023-03-01T11:05:56.368Z,64.76
2023-03-01T11:11:13.829Z,65.23
2023-03-01T11:16:15.437Z,62.79
2023-03-01T11:21:17.345Z,63.48
2023-03-01T11:26:19.649Z,62.75
2023-03-01T11:31:22.900Z,61.89
2023-03-01T11:36:39.816Z,59.46
2023-03-01T11:41:42.445Z,59.24
2023-03-01T11:46:54.228Z,59.98
2023-03-01T11:52:04.737Z,58.93
2023-03-01T11:57:49.457Z,58.56
2023-03-01T12:03:20.092Z,56.57
2023-03-01T12:08:34.895Z,56.85
2023-03-01T12:13:55.296Z,55.11
2023-03-01T12:19:15.127Z,54.53
2023-03-01T12:24:22.820Z,53.70
2023-03-01T12:29:35.887Z,55.18
2023-03-01T12:35:02.680Z,55.18
2023-03-01T12:40:25.407Z,56.12
2023-03-01T12:45:49.126Z,56.60
2023-03-01T12:50:54.294Z,56.53
2023-03-01T12:55:59.602Z,56.17
2023-03-01T13:01:04.560Z,57.02
2023-03-01T13:06:18.907Z,56.54
2023-03-01T13:11:22.650Z,56.83
2023-03-01T13:16:30.801Z,57.12
2023-03-01T13:21:32.845Z,56.55
2023-03-01T13:27:14.656Z,56.61
2023-03-01T13:32:43.123Z,54.95
2023-03-01T13:37:45.993Z,54.13
2023-03-01T13:43:04.259Z,55.40
2023-03-01T13:48:27.205Z,54.23
2023-03-01T13:53:32.380Z,54.12
2023-03-01T13:58:49.258Z,55.14
2023-03-01T14:03:51.020Z,55.41
2023-03-01T14:09:03.090Z,56.08
2023-03-01T14:14:13.360Z,55.30
2023-03-01T14:19:32.597Z,54.47
2023-03-01T14:24:36.518Z,53.92
2023-03-01T14:29:39.442Z,52.49
2023-03-01T14:34:46.480Z,52.67
2023-03-01T14:39:48.792Z,53.61
2023-03-01T14:44:52.286Z,53.25
2023-03-01T14:50:08.577Z,52.85
2023-03-01T14:55:22.113Z,53.16
2023-03-01T15:00:29.356Z,53.19
2023-03-01T15:05:32.715Z,54.51
2023-03-01T15:10:36.987Z,54.54
2023-03-01T15:15:47.506Z,54.51
2023-03-01T15:20:50.315Z,54.49
2023-03-01T15:26:00.245Z,54.87
2023-03-01T15:31:19.036Z,54.93
2023-03-01T15:36:39.231Z,55.35
2023-03-01T15:41:49.176Z,54.60
2023-03-01T15:46:50.779Z,55.32
2023-03-01T15:51:55.753Z,54.76
2023-03-01T15:56:57.380Z,55.24
2023-03-01T16:01:59.038Z,54.93
2023-03-01T16:07:00.651Z,54.98
2023-03-01T16:12:02.686Z,54.35
2023-03-01T16:17:04.263Z,54.60
2023-03-01T16:22:06.136Z,54.20
2023-03-01T16:27:07.988Z,55.59
2023-03-01T16:32:09.686Z,54.94
2023-03-01T16:37:11.592Z,55.49
2023-03-01T16:42:13.204Z,55.17
2023-03-01T16:47:14.819Z,54.40
2023-03-01T16:52:16.373Z,54.77
2023-03-01T16:57:17.938Z,55.08
2023-03-01T17:02:20.761Z,54.92
2023-03-01T17:07:23.032Z,55.38
2023-03-01T17:12:24.603Z,55.64
2023-03-01T17:17:27.438Z,56.09
2023-03-01T17:22:29.122Z,56.50
2023-03-01T17:27:35.434Z,57.21
2023-03-01T17:32:37.240Z,57.78
2023-03-01T17:37:39.925Z,57.90
2023-03-01T17:42:41.547Z,58.86
2023-03-01T17:47:43.105Z,59.65
2023-03-01T17:52:44.716Z,59.88
2023-03-01T17:57:46.272Z,60.80
2023-03-01T18:02:47.918Z,61.92
2023-03-01T18:07:51.121Z,61.52
2023-03-01T18:12:52.691Z,60.93
2023-03-01T18:17:54.687Z,60.44
2023-03-01T18:22:56.369Z,60.36
2023-03-01T18:27:58.023Z,60.05
2023-03-01T18:32:59.579Z,57.48
2023-03-01T18:38:01.147Z,57.28
2023-03-01T18:43:02.717Z,57.41
2023-03-01T18:48:04.543Z,57.79
2023-03-01T18:53:06.220Z,58.79
2023-03-01T18:58:07.853Z,58.48
2023-03-01T19:03:11.193Z,59.42
2023-03-01T19:08:12.777Z,59.69
2023-03-01T19:13:14.351Z,60.22
2023-03-01T19:18:15.906Z,59.34
2023-03-01T19:23:17.525Z,59.26
2023-03-01T19:28:19.165Z,59.05
2023-03-01T19:33:20.699Z,58.65
2023-03-01T19:38:23.561Z,59.81
2023-03-01T19:43:25.266Z,59.14
2023-03-01T19:48:27.372Z,59.03
2023-03-01T19:53:29.018Z,59.75
2023-03-01T19:58:31.540Z,59.70
2023-03-01T20:03:36.631Z,59.73
2023-03-01T20:08:38.410Z,60.47
2023-03-01T20:13:40.031Z,61.16
2023-03-01T20:18:41.700Z,61.73
2023-03-01T20:23:43.354Z,62.17
2023-03-01T20:28:46.110Z,62.69
2023-03-01T20:33:48.380Z,62.75
2023-03-01T20:38:52.771Z,62.89
2023-03-01T20:43:56.427Z,63.51
2023-03-01T20:48:58.281Z,63.29
2023-03-01T20:54:00.079Z,63.21
2023-03-01T20:59:04.399Z,64.75
2023-03-01T21:04:06.336Z,64.99
2023-03-01T21:09:08.005Z,65.47
2023-03-01T21:14:12.386Z,66.89
2023-03-01T21:19:14.115Z,67.98
2023-03-01T21:24:15.792Z,69.01
2023-03-01T21:29:17.378Z,69.65
2023-03-01T21:34:18.929Z,68.92
2023-03-01T21:39:21.523Z,68.16
2023-03-01T21:44:24.447Z,68.31
2023-03-01T21:49:26.860Z,68.40
2023-03-01T21:54:28.538Z,69.45
2023-03-01T21:59:30.524Z,69.95
2023-03-01T22:04:32.113Z,70.54
2023-03-01T22:09:36.126Z,71.30
2023-03-01T22:14:37.758Z,72.45
2023-03-01T22:19:39.380Z,72.17
2023-03-01T22:24:40.914Z,71.85
2023-03-01T22:29:42.468Z,73.60
2023-03-01T22:34:44.060Z,72.60
2023-03-01T22:39:45.610Z,71.91
2023-03-01T22:44:47.192Z,72.04
2023-03-01T22:56:49.521Z,72.64
2023-03-01T23:01:52.608Z,73.28
2023-03-01T23:06:54.489Z,73.73
2023-03-01T23:11:56.976Z,74.25
2023-03-01T23:17:01.435Z,76.37
2023-03-01T23:22:03.089Z,75.89
2023-03-01T23:27:05.301Z,74.84
2023-03-01T23:32:07.039Z,73.55
2023-03-01T23:37:10.304Z,74.17
2023-03-01T23:42:11.901Z,74.02
2023-03-01T23:47:13.591Z,73.91
2023-03-01T23:52:17.242Z,74.16
2023-03-01T23:57:19.798Z,74.64
